FOOG

Port Gentil Airport

Port Gentil, Gabon
METAR FOOG 182300Z 18002KT 9999 SCT008 26/24 Q1011
Observed Flight Rules
Jan-18 @ 23:00 UTC (5 hours ago) Visual Flight Rules
Wind Visibility Clouds
180° at 2 knots 10,000+ meters
  • Scattered at 800' AGL
Temperatures Readings
Current 26°C / 79°F
Dewpoint 24°C / 75°F
Humidity 89%
Altimeter 29.85" Hg
Pressure 1011 hPa
Elevation 4
METAR FOOG 182300Z 18002KT 9999 SCT008 26/24 Q1011
Observed Flight Rules
Jan-18 @ 23:00 UTC
(5 hours ago)
VFR
Wind Visibility
180° at 2 knots 10,000+ meters
Clouds
  • Scattered at 800' AGL
Temperature Dewpoint
26°C / 79°F 24°C / 75°F
Humidity Altimeter Pressure
89% 29.85" Hg 1011 hPa